Terminal Aerodrome Forecast
Issued by NWS

Home | Current Version | Previous Version | Text Only | Print | Product List | Glossary On
Versions: 1 2 3 4 5 6 7 8 9 10 11 12 13 14 15 16
000
FTUS44 KBMX 161721
TAFMGM
TAF
KMGM 161721Z 1618/1718 10006KT P6SM OVC080
     FM170900 13004KT P6SM OVC050
     FM171200 12003KT 5SM BR OVC015
     FM171400 16004KT 4SM BR OVC007
     FM171600 18007KT P6SM OVC015=

USA.gov is the U.S. government's official web portal to all federal, state and local government web resources and services.